createdAt,value
2022-07-30T00:01:14.278Z,100.00
2022-07-30T00:03:40.915Z,100.00
2022-07-30T00:06:07.523Z,100.00
2022-07-30T00:08:34.172Z,100.00
2022-07-30T00:11:00.730Z,100.00
2022-07-30T00:13:27.345Z,100.00
2022-07-30T00:15:53.890Z,100.00
2022-07-30T00:18:20.410Z,100.00
2022-07-30T00:20:48.938Z,100.00
2022-07-30T00:23:15.803Z,100.00
2022-07-30T00:25:42.404Z,100.00
2022-07-30T00:28:08.908Z,100.00
2022-07-30T00:30:35.660Z,100.00
2022-07-30T00:33:02.306Z,100.00
2022-07-30T00:35:28.930Z,100.00
2022-07-30T00:37:55.498Z,100.00
2022-07-30T00:40:22.313Z,100.00
2022-07-30T00:42:48.969Z,100.00
2022-07-30T00:45:17.421Z,100.00
2022-07-30T00:47:44.392Z,100.00
2022-07-30T00:50:12.744Z,100.00
2022-07-30T00:52:39.726Z,100.00
2022-07-30T00:55:08.562Z,100.00
2022-07-30T00:57:35.280Z,100.00
2022-07-30T01:00:02.197Z,100.00
2022-07-30T01:02:28.781Z,100.00
2022-07-30T01:04:55.364Z,100.00
2022-07-30T01:07:22.080Z,100.00
2022-07-30T01:09:53.907Z,100.00
2022-07-30T01:12:23.916Z,100.00
2022-07-30T01:14:50.572Z,100.00
2022-07-30T01:17:17.098Z,100.00
2022-07-30T01:19:55.846Z,100.00
2022-07-30T01:22:30.606Z,100.00
2022-07-30T01:25:03.790Z,100.00
2022-07-30T01:27:33.868Z,100.00
2022-07-30T01:30:04.478Z,100.00
2022-07-30T01:32:31.650Z,100.00
2022-07-30T01:34:59.211Z,100.00
2022-07-30T01:37:26.043Z,100.00
2022-07-30T01:39:53.405Z,100.00
2022-07-30T01:42:20.981Z,100.00
2022-07-30T01:44:48.898Z,100.00
2022-07-30T01:47:17.538Z,100.00
2022-07-30T01:49:47.289Z,100.00
2022-07-30T01:52:14.986Z,100.00
2022-07-30T01:54:44.848Z,100.00
2022-07-30T01:57:11.810Z,100.00
2022-07-30T01:59:40.245Z,100.00
2022-07-30T02:02:06.894Z,100.00
2022-07-30T02:04:34.239Z,100.00
2022-07-30T02:07:13.166Z,100.00
2022-07-30T02:09:47.335Z,100.00
2022-07-30T02:12:28.501Z,100.00
2022-07-30T02:15:12.066Z,100.00
2022-07-30T02:17:45.471Z,100.00
2022-07-30T02:20:14.665Z,100.00
2022-07-30T02:22:44.266Z,100.00
2022-07-30T02:25:14.923Z,100.00
2022-07-30T02:27:43.419Z,100.00
2022-07-30T02:30:10.833Z,100.00
2022-07-30T02:32:39.595Z,100.00
2022-07-30T02:35:25.000Z,100.00
2022-07-30T02:37:52.974Z,100.00
2022-07-30T02:40:20.544Z,100.00
2022-07-30T02:42:49.752Z,100.00
2022-07-30T02:45:20.123Z,100.00
2022-07-30T02:47:50.956Z,100.00
2022-07-30T02:50:18.282Z,100.00
2022-07-30T02:52:45.435Z,100.00
2022-07-30T02:55:12.542Z,100.00
2022-07-30T02:57:43.510Z,100.00
2022-07-30T03:00:11.927Z,100.00
2022-07-30T03:02:38.398Z,100.00
2022-07-30T03:05:07.495Z,100.00
2022-07-30T03:07:35.358Z,100.00
2022-07-30T03:10:02.313Z,100.00
2022-07-30T03:12:33.036Z,100.00
2022-07-30T03:14:59.731Z,100.00
2022-07-30T03:17:29.179Z,100.00
2022-07-30T03:19:56.271Z,100.00
2022-07-30T03:22:26.063Z,100.00
2022-07-30T03:24:55.625Z,100.00
2022-07-30T03:27:22.645Z,100.00
2022-07-30T03:29:52.383Z,100.00
2022-07-30T03:32:19.172Z,100.00
2022-07-30T03:34:54.177Z,100.00
2022-07-30T03:37:21.539Z,100.00
2022-07-30T03:39:48.580Z,100.00
2022-07-30T03:42:15.691Z,100.00
2022-07-30T03:44:45.628Z,100.00
2022-07-30T03:47:12.899Z,100.00
2022-07-30T03:49:39.535Z,100.00
2022-07-30T03:52:07.081Z,100.00
2022-07-30T03:54:33.980Z,100.00
2022-07-30T03:57:02.222Z,100.00
2022-07-30T03:59:29.713Z,100.00
2022-07-30T04:02:06.893Z,100.00
2022-07-30T04:04:34.334Z,100.00
2022-07-30T04:07:01.338Z,100.00
2022-07-30T04:09:28.125Z,100.00
2022-07-30T04:11:54.649Z,100.00
2022-07-30T04:14:21.223Z,100.00
2022-07-30T04:16:52.156Z,100.00
2022-07-30T04:19:23.205Z,100.00
2022-07-30T04:21:51.192Z,100.00
2022-07-30T04:24:19.353Z,100.00
2022-07-30T04:26:46.697Z,100.00
2022-07-30T04:29:18.125Z,100.00
2022-07-30T04:31:45.953Z,100.00
2022-07-30T04:34:14.862Z,100.00
2022-07-30T04:36:42.584Z,100.00
2022-07-30T04:39:09.994Z,100.00
2022-07-30T04:41:49.578Z,100.00
2022-07-30T04:44:19.947Z,100.00
2022-07-30T04:46:47.809Z,100.00
2022-07-30T04:49:15.916Z,100.00
2022-07-30T04:51:42.710Z,100.00
2022-07-30T04:54:15.479Z,100.00
2022-07-30T04:56:53.459Z,100.00
2022-07-30T04:59:21.999Z,100.00
2022-07-30T05:01:50.078Z,100.00
2022-07-30T05:04:17.392Z,100.00
2022-07-30T05:06:44.321Z,100.00
2022-07-30T05:09:12.079Z,100.00
2022-07-30T05:11:38.701Z,100.00
2022-07-30T05:14:05.276Z,100.00
2022-07-30T05:16:34.112Z,100.00
2022-07-30T05:19:00.738Z,100.00
2022-07-30T05:21:28.645Z,100.00
2022-07-30T05:23:55.648Z,100.00
2022-07-30T05:26:22.617Z,100.00
2022-07-30T05:28:56.635Z,100.00
2022-07-30T05:31:23.806Z,100.00
2022-07-30T05:33:51.567Z,100.00
2022-07-30T05:36:18.887Z,100.00
2022-07-30T05:38:45.401Z,100.00
2022-07-30T05:41:18.202Z,100.00
2022-07-30T05:43:58.457Z,100.00
2022-07-30T05:46:25.017Z,100.00
2022-07-30T05:48:51.619Z,100.00
2022-07-30T05:51:19.801Z,100.00
2022-07-30T05:53:46.464Z,100.00
2022-07-30T05:56:13.172Z,100.00
2022-07-30T05:58:39.774Z,100.00
2022-07-30T06:01:06.347Z,100.00
2022-07-30T06:03:33.882Z,100.00
2022-07-30T06:06:00.580Z,100.00
2022-07-30T06:08:27.036Z,100.00
2022-07-30T06:10:53.536Z,100.00
2022-07-30T06:13:20.062Z,100.00
2022-07-30T06:15:46.639Z,100.00
2022-07-30T06:18:13.181Z,100.00
2022-07-30T06:20:42.187Z,100.00
2022-07-30T06:23:08.717Z,100.00
2022-07-30T06:25:35.220Z,100.00
2022-07-30T06:28:21.299Z,100.00
2022-07-30T06:30:52.502Z,100.00
2022-07-30T06:33:19.097Z,100.00
2022-07-30T06:35:45.607Z,100.00
2022-07-30T06:38:12.104Z,100.00
2022-07-30T06:40:39.471Z,100.00
2022-07-30T06:43:06.252Z,100.00
2022-07-30T06:45:32.789Z,100.00
2022-07-30T06:47:59.735Z,100.00
2022-07-30T06:50:26.428Z,100.00
2022-07-30T06:52:53.136Z,100.00
2022-07-30T06:55:19.603Z,100.00
2022-07-30T06:57:46.118Z,100.00
2022-07-30T07:00:12.888Z,100.00
2022-07-30T07:02:39.510Z,100.00
2022-07-30T07:05:07.391Z,100.00
2022-07-30T07:07:42.451Z,100.00
2022-07-30T07:10:13.054Z,100.00
2022-07-30T07:12:39.590Z,100.00
2022-07-30T07:15:06.806Z,100.00
2022-07-30T07:17:33.430Z,100.00
2022-07-30T07:20:02.477Z,100.00
2022-07-30T07:22:29.447Z,100.00
2022-07-30T07:24:56.075Z,100.00
2022-07-30T07:27:22.854Z,100.00
2022-07-30T07:30:01.733Z,100.00
2022-07-30T07:32:33.155Z,100.00
2022-07-30T07:34:59.733Z,100.00
2022-07-30T07:37:26.318Z,100.00
2022-07-30T07:39:52.795Z,100.00
2022-07-30T07:42:19.335Z,100.00
2022-07-30T07:44:45.847Z,100.00
2022-07-30T07:47:12.407Z,100.00
2022-07-30T07:49:38.899Z,100.00
2022-07-30T07:52:05.862Z,100.00
2022-07-30T07:54:32.409Z,100.00
2022-07-30T07:56:59.296Z,100.00
2022-07-30T07:59:36.018Z,100.00
2022-07-30T08:02:08.051Z,100.00
2022-07-30T08:04:35.343Z,100.00
2022-07-30T08:07:02.359Z,100.00
2022-07-30T08:09:42.034Z,100.00
2022-07-30T08:12:11.037Z,100.00
2022-07-30T08:14:37.822Z,100.00
2022-07-30T08:17:04.729Z,100.00
2022-07-30T08:19:31.561Z,100.00
2022-07-30T08:21:59.736Z,100.00
2022-07-30T08:24:27.028Z,100.00
2022-07-30T08:26:53.800Z,100.00
2022-07-30T08:29:21.353Z,100.00
2022-07-30T08:31:47.888Z,100.00
2022-07-30T08:34:14.463Z,100.00
2022-07-30T08:36:41.454Z,100.00
2022-07-30T08:39:08.607Z,100.00
2022-07-30T08:41:37.086Z,100.00
2022-07-30T08:44:06.909Z,100.00
2022-07-30T08:46:37.062Z,100.00
2022-07-30T08:49:09.152Z,100.00
2022-07-30T08:51:38.639Z,100.00
2022-07-30T08:54:06.194Z,100.00
2022-07-30T08:56:33.731Z,100.00
2022-07-30T08:59:01.011Z,100.00
2022-07-30T09:01:27.802Z,100.00
2022-07-30T09:03:54.343Z,100.00
2022-07-30T09:06:20.928Z,100.00
2022-07-30T09:08:47.457Z,100.00
2022-07-30T09:11:14.152Z,100.00
2022-07-30T09:13:42.372Z,100.00
2022-07-30T09:16:25.292Z,100.00
2022-07-30T09:18:53.901Z,100.00
2022-07-30T09:21:25.959Z,100.00
2022-07-30T09:24:02.056Z,100.00
2022-07-30T09:26:31.144Z,100.00
2022-07-30T09:29:17.237Z,98.62
2022-07-30T09:32:01.851Z,99.98
2022-07-30T09:34:33.694Z,100.00
2022-07-30T09:37:02.359Z,100.00
2022-07-30T09:39:29.875Z,100.00
2022-07-30T09:41:56.807Z,92.59
2022-07-30T09:44:28.178Z,94.68
2022-07-30T09:46:54.796Z,96.38
2022-07-30T09:49:24.873Z,100.00
2022-07-30T09:51:56.328Z,100.00
2022-07-30T09:54:25.381Z,99.39
2022-07-30T09:57:23.120Z,95.02
2022-07-30T09:59:53.571Z,82.20
2022-07-30T10:02:21.775Z,81.46
2022-07-30T10:04:48.439Z,78.99
2022-07-30T10:07:25.677Z,77.41
2022-07-30T10:09:54.230Z,74.71
2022-07-30T10:12:23.946Z,74.00
2022-07-30T10:14:53.317Z,72.87
2022-07-30T10:17:20.229Z,76.46
2022-07-30T10:19:48.230Z,73.05
2022-07-30T10:22:17.131Z,75.68
2022-07-30T10:24:43.733Z,70.88
2022-07-30T10:27:10.520Z,69.69
2022-07-30T10:29:42.796Z,65.87
2022-07-30T10:32:10.056Z,65.55
2022-07-30T10:34:38.249Z,64.17
2022-07-30T10:37:11.095Z,65.68
2022-07-30T10:39:57.515Z,67.91
2022-07-30T10:42:42.725Z,69.46
2022-07-30T10:45:18.506Z,75.88
2022-07-30T10:47:49.875Z,76.01
2022-07-30T10:50:22.703Z,67.85
2022-07-30T10:52:57.584Z,67.39
2022-07-30T10:55:38.499Z,74.21
2022-07-30T10:58:15.531Z,66.90
2022-07-30T11:00:51.865Z,68.13
2022-07-30T11:03:41.432Z,63.24
2022-07-30T11:06:24.546Z,67.04
2022-07-30T11:08:51.820Z,71.06
2022-07-30T11:11:59.163Z,67.55
2022-07-30T11:14:07.995Z,60.67
2022-07-30T11:16:34.970Z,61.37
2022-07-30T11:19:54.874Z,60.62
2022-07-30T11:22:31.694Z,59.53
2022-07-30T11:24:59.726Z,59.74
2022-07-30T11:27:45.652Z,60.80
2022-07-30T11:30:15.514Z,62.70
2022-07-30T11:32:48.581Z,59.46
2022-07-30T11:35:23.160Z,59.98
2022-07-30T11:38:08.949Z,60.38
2022-07-30T11:40:48.806Z,58.85
2022-07-30T11:43:15.259Z,59.18
2022-07-30T11:45:41.992Z,59.00
2022-07-30T11:48:13.957Z,58.56
2022-07-30T11:50:41.587Z,58.07
2022-07-30T11:53:10.435Z,57.67
2022-07-30T11:55:40.344Z,55.71
2022-07-30T11:58:14.618Z,55.90
2022-07-30T12:00:48.029Z,52.80
2022-07-30T12:03:16.342Z,51.29
2022-07-30T12:05:43.963Z,55.24
2022-07-30T12:08:35.442Z,51.57
2022-07-30T12:10:58.984Z,50.29
2022-07-30T12:13:44.133Z,51.42
2022-07-30T12:16:14.506Z,49.91
2022-07-30T12:18:41.143Z,51.96
2022-07-30T12:21:09.361Z,50.62
2022-07-30T12:23:36.685Z,51.72
2022-07-30T12:26:05.794Z,51.32
2022-07-30T12:28:34.382Z,50.85
2022-07-30T12:31:04.208Z,51.06
2022-07-30T12:33:31.087Z,50.31
2022-07-30T12:35:59.883Z,50.58
2022-07-30T12:38:28.229Z,53.66
2022-07-30T12:41:03.043Z,52.28
2022-07-30T12:43:52.412Z,57.22
2022-07-30T12:46:23.632Z,51.24
2022-07-30T12:49:10.322Z,49.97
2022-07-30T12:51:59.761Z,51.59
2022-07-30T12:54:27.784Z,49.06
2022-07-30T12:56:57.701Z,56.49
2022-07-30T12:59:25.831Z,54.75
2022-07-30T13:01:53.753Z,62.99
2022-07-30T13:04:20.449Z,59.15
2022-07-30T13:07:07.872Z,55.18
2022-07-30T13:09:34.995Z,55.62
2022-07-30T13:12:01.604Z,54.30
2022-07-30T13:14:28.351Z,55.14
2022-07-30T13:16:58.866Z,51.13
2022-07-30T13:19:26.530Z,49.77
2022-07-30T13:21:53.229Z,45.38
2022-07-30T13:24:20.140Z,45.54
2022-07-30T13:26:47.811Z,47.16
2022-07-30T13:29:17.180Z,45.87
2022-07-30T13:31:43.720Z,44.91
2022-07-30T13:34:11.918Z,45.97
2022-07-30T13:36:38.563Z,42.67
2022-07-30T13:39:05.101Z,44.91
2022-07-30T13:41:31.658Z,46.63
2022-07-30T13:43:58.288Z,44.84
2022-07-30T13:46:24.841Z,43.86
2022-07-30T13:48:51.483Z,44.51
2022-07-30T13:51:18.506Z,45.00
2022-07-30T13:53:45.040Z,45.30
2022-07-30T13:56:12.941Z,45.77
2022-07-30T13:58:40.210Z,44.63
2022-07-30T14:01:09.628Z,44.30
2022-07-30T14:03:47.090Z,44.14
2022-07-30T14:06:15.938Z,44.18
2022-07-30T14:08:42.606Z,45.89
2022-07-30T14:11:09.139Z,43.79
2022-07-30T14:13:35.819Z,45.23
2022-07-30T14:16:02.335Z,43.65
2022-07-30T14:18:28.969Z,45.30
2022-07-30T14:20:55.975Z,45.54
2022-07-30T14:23:22.557Z,45.56
2022-07-30T14:25:49.436Z,46.67
2022-07-30T14:28:15.992Z,46.11
2022-07-30T14:30:43.198Z,46.83
2022-07-30T14:33:10.370Z,47.91
2022-07-30T14:35:37.144Z,46.32
2022-07-30T14:38:04.117Z,45.02
2022-07-30T14:40:30.724Z,48.17
2022-07-30T14:42:57.948Z,45.48
2022-07-30T14:45:25.574Z,45.33
2022-07-30T14:47:52.505Z,47.02
2022-07-30T14:50:19.300Z,43.20
2022-07-30T14:52:47.489Z,43.22
2022-07-30T14:55:14.133Z,42.91
2022-07-30T14:57:40.698Z,42.93
2022-07-30T15:00:09.564Z,42.80
2022-07-30T15:02:37.737Z,42.93
2022-07-30T15:05:04.601Z,42.78
2022-07-30T15:07:34.550Z,42.69
2022-07-30T15:10:02.532Z,42.72
2022-07-30T15:12:29.209Z,42.83
2022-07-30T15:14:55.895Z,43.99
2022-07-30T15:17:22.376Z,45.92
2022-07-30T15:19:50.732Z,49.63
2022-07-30T15:22:19.034Z,47.80
2022-07-30T15:24:45.533Z,45.28
2022-07-30T15:27:12.387Z,45.35
2022-07-30T15:29:38.900Z,44.01
2022-07-30T15:32:06.053Z,46.49
2022-07-30T15:34:34.523Z,47.12
2022-07-30T15:37:02.603Z,46.49
2022-07-30T15:39:29.641Z,43.83
2022-07-30T15:41:57.101Z,43.77
2022-07-30T15:44:24.276Z,45.14
2022-07-30T15:46:50.924Z,43.99
2022-07-30T15:49:17.562Z,44.81
2022-07-30T15:51:48.645Z,47.50
2022-07-30T15:54:22.408Z,51.20
2022-07-30T15:56:50.783Z,49.42
2022-07-30T15:59:17.834Z,51.54
2022-07-30T16:01:44.566Z,54.01
2022-07-30T16:04:19.715Z,54.70
2022-07-30T16:06:49.752Z,56.30
2022-07-30T16:09:16.532Z,58.44
2022-07-30T16:11:43.176Z,60.25
2022-07-30T16:14:09.865Z,60.52
2022-07-30T16:16:36.860Z,60.95
2022-07-30T16:19:03.807Z,63.00
2022-07-30T16:21:30.509Z,62.48
2022-07-30T16:23:57.082Z,62.55
2022-07-30T16:26:23.614Z,65.24
2022-07-30T16:28:50.277Z,63.09
2022-07-30T16:31:17.122Z,63.80
2022-07-30T16:33:43.622Z,65.29
2022-07-30T16:36:10.365Z,49.07
2022-07-30T16:38:37.249Z,59.47
2022-07-30T16:41:03.912Z,50.50
2022-07-30T16:43:31.982Z,45.47
2022-07-30T16:45:59.513Z,44.33
2022-07-30T16:48:26.664Z,43.91
2022-07-30T16:50:53.590Z,44.26
2022-07-30T16:53:20.161Z,42.85
2022-07-30T16:55:47.292Z,41.84
2022-07-30T16:58:13.841Z,43.70
2022-07-30T17:00:40.511Z,43.06
2022-07-30T17:03:07.096Z,43.55
2022-07-30T17:05:33.616Z,42.77
2022-07-30T17:08:00.240Z,42.69
2022-07-30T17:10:27.303Z,45.54
2022-07-30T17:12:56.889Z,42.35
2022-07-30T17:15:32.092Z,42.39
2022-07-30T17:17:59.680Z,42.33
2022-07-30T17:20:26.201Z,43.16
2022-07-30T17:22:55.321Z,42.13
2022-07-30T17:25:22.815Z,41.74
2022-07-30T17:27:50.532Z,42.51
2022-07-30T17:30:17.532Z,41.77
2022-07-30T17:32:44.021Z,41.62
2022-07-30T17:35:13.826Z,44.02
2022-07-30T17:37:40.918Z,46.72
2022-07-30T17:40:28.621Z,42.00
2022-07-30T17:42:54.845Z,44.05
2022-07-30T17:45:21.525Z,55.06
2022-07-30T17:47:48.022Z,42.91
2022-07-30T17:50:14.842Z,48.35
2022-07-30T17:52:42.288Z,48.91
2022-07-30T17:55:11.301Z,43.60
2022-07-30T17:57:38.400Z,42.26
2022-07-30T18:00:06.952Z,42.60
2022-07-30T18:02:33.464Z,41.40
2022-07-30T18:05:00.062Z,40.99
2022-07-30T18:07:27.151Z,41.81
2022-07-30T18:09:53.809Z,41.84
2022-07-30T18:12:20.428Z,42.12
2022-07-30T18:14:47.004Z,42.42
2022-07-30T18:17:14.569Z,41.61
2022-07-30T18:19:42.302Z,41.58
2022-07-30T18:22:09.003Z,43.09
2022-07-30T18:24:40.357Z,42.25
2022-07-30T18:27:11.571Z,42.10
2022-07-30T18:29:38.051Z,50.60
2022-07-30T18:32:05.240Z,54.27
2022-07-30T18:34:32.041Z,55.24
2022-07-30T18:36:58.573Z,54.36
2022-07-30T18:39:25.122Z,54.89
2022-07-30T18:41:51.615Z,55.67
2022-07-30T18:44:18.353Z,56.13
2022-07-30T18:46:44.941Z,57.27
2022-07-30T18:49:35.162Z,57.91
2022-07-30T18:51:59.397Z,59.71
2022-07-30T18:54:25.978Z,60.20
2022-07-30T18:56:52.477Z,60.80
2022-07-30T18:59:19.035Z,60.95
2022-07-30T19:01:45.630Z,60.68
2022-07-30T19:04:12.196Z,59.95
2022-07-30T19:06:38.706Z,59.38
2022-07-30T19:09:05.911Z,59.13
2022-07-30T19:11:44.967Z,58.80
2022-07-30T19:14:13.140Z,58.16
2022-07-30T19:16:40.198Z,58.46
2022-07-30T19:19:06.695Z,59.42
2022-07-30T19:21:33.231Z,61.32
2022-07-30T19:23:59.781Z,61.13
2022-07-30T19:26:26.442Z,61.13
2022-07-30T19:28:52.921Z,60.94
2022-07-30T19:31:19.590Z,61.35
2022-07-30T19:33:46.128Z,61.40
2022-07-30T19:36:15.147Z,61.35
2022-07-30T19:38:44.138Z,61.79
2022-07-30T19:41:12.073Z,61.01
2022-07-30T19:43:41.041Z,59.34
2022-07-30T19:46:08.000Z,59.68
2022-07-30T19:48:37.309Z,60.93
2022-07-30T19:51:04.559Z,59.79
2022-07-30T19:53:34.166Z,60.61
2022-07-30T19:56:03.309Z,58.98
2022-07-30T19:58:30.710Z,56.59
2022-07-30T20:00:57.371Z,57.90
2022-07-30T20:06:14.821Z,61.01
2022-07-30T20:08:41.807Z,61.87
2022-07-30T20:11:11.831Z,58.42
2022-07-30T20:13:48.020Z,59.49
2022-07-30T20:16:15.818Z,59.62
2022-07-30T20:18:42.985Z,59.59
2022-07-30T20:21:15.179Z,57.66
2022-07-30T20:23:42.948Z,59.05
2022-07-30T20:26:13.639Z,58.79
2022-07-30T20:28:41.139Z,57.22
2022-07-30T20:31:08.355Z,58.95
2022-07-30T20:33:35.802Z,59.94
2022-07-30T20:36:02.448Z,63.00
2022-07-30T20:38:30.347Z,58.29
2022-07-30T20:40:57.326Z,57.96
2022-07-30T20:43:24.061Z,58.97
2022-07-30T20:45:54.198Z,59.16
2022-07-30T20:48:25.590Z,59.41
2022-07-30T20:50:52.589Z,56.93
2022-07-30T20:53:19.847Z,57.96
2022-07-30T20:55:47.395Z,61.02
2022-07-30T21:01:00.560Z,61.15
2022-07-30T21:03:31.636Z,59.02
2022-07-30T21:05:58.813Z,58.67
2022-07-30T21:08:26.485Z,59.46
2022-07-30T21:10:53.411Z,59.25
2022-07-30T21:13:23.056Z,58.96
2022-07-30T21:16:02.326Z,60.36
2022-07-30T21:18:29.612Z,61.78
2022-07-30T21:20:57.243Z,62.93
2022-07-30T21:23:23.907Z,61.64
2022-07-30T21:26:02.297Z,62.55
2022-07-30T21:28:35.937Z,61.44
2022-07-30T21:31:03.870Z,62.50
2022-07-30T21:33:35.979Z,62.55
2022-07-30T21:36:02.489Z,61.83
2022-07-30T21:38:31.756Z,62.35
2022-07-30T21:40:58.167Z,60.65
2022-07-30T21:43:30.124Z,60.97
2022-07-30T21:45:58.215Z,64.60
2022-07-30T21:48:25.575Z,65.33
2022-07-30T21:50:53.726Z,65.86
2022-07-30T21:53:45.191Z,67.10
2022-07-30T21:56:06.853Z,66.98
2022-07-30T21:58:33.569Z,68.48
2022-07-30T22:01:16.316Z,67.46
2022-07-30T22:04:04.605Z,63.97
2022-07-30T22:06:37.690Z,66.55
2022-07-30T22:09:20.542Z,67.88
2022-07-30T22:11:52.947Z,68.87
2022-07-30T22:14:19.480Z,69.35
2022-07-30T22:16:46.891Z,69.01
2022-07-30T22:19:14.876Z,69.39
2022-07-30T22:21:42.661Z,70.65
2022-07-30T22:24:29.806Z,69.88
2022-07-30T22:27:01.723Z,70.21
2022-07-30T22:29:41.662Z,71.00
2022-07-30T22:32:09.624Z,71.19
2022-07-30T22:34:37.296Z,71.84
2022-07-30T22:37:03.825Z,72.03
2022-07-30T22:39:32.126Z,72.76
2022-07-30T22:42:16.808Z,72.73
2022-07-30T22:44:45.944Z,73.52
2022-07-30T22:47:21.177Z,73.78
2022-07-30T22:49:55.283Z,74.01
2022-07-30T22:52:25.331Z,73.59
2022-07-30T22:54:58.654Z,73.38
2022-07-30T22:57:27.442Z,73.30
2022-07-30T22:59:58.220Z,73.85
2022-07-30T23:02:27.784Z,73.40
2022-07-30T23:04:54.960Z,74.00
2022-07-30T23:07:23.363Z,73.80
2022-07-30T23:09:52.096Z,73.38
2022-07-30T23:12:15.733Z,60.22
2022-07-30T23:12:20.176Z,73.82
2022-07-30T23:12:26.632Z,60.46
2022-07-30T23:14:47.049Z,74.51
2022-07-30T23:17:13.656Z,74.20
2022-07-30T23:19:40.287Z,75.74
2022-07-30T23:22:07.128Z,76.22
2022-07-30T23:24:33.789Z,76.17
2022-07-30T23:27:00.567Z,76.92
2022-07-30T23:29:28.548Z,78.12
2022-07-30T23:31:55.454Z,78.55
2022-07-30T23:34:21.951Z,79.60
2022-07-30T23:36:48.553Z,80.17
2022-07-30T23:39:15.061Z,80.42
2022-07-30T23:41:41.622Z,81.29
2022-07-30T23:44:08.088Z,81.83
2022-07-30T23:46:37.050Z,81.11
2022-07-30T23:49:04.622Z,80.88
2022-07-30T23:51:33.568Z,80.67
2022-07-30T23:54:00.657Z,80.92
2022-07-30T23:56:27.329Z,81.75
2022-07-30T23:58:54.691Z,81.85
